createdAt,value
2018-10-19T00:00:30.651Z,9.47
2018-10-19T00:03:00.258Z,12.07
2018-10-19T00:05:28.649Z,9.40
2018-10-19T00:07:58.252Z,12.27
2018-10-19T00:10:27.858Z,10.37
2018-10-19T00:12:56.254Z,12.33
2018-10-19T00:15:24.892Z,11.70
2018-10-19T00:17:53.258Z,10.13
2018-10-19T00:20:22.922Z,11.47
2018-10-19T00:22:52.968Z,10.93
2018-10-19T00:25:21.518Z,8.57
2018-10-19T00:27:51.070Z,8.20
2018-10-19T00:30:20.724Z,8.13
2018-10-19T00:32:49.102Z,9.17
2018-10-19T00:35:18.710Z,14.10
2018-10-19T00:37:48.310Z,12.23
2018-10-19T00:40:17.890Z,11.60
2018-10-19T00:42:47.550Z,17.03
2018-10-19T00:45:25.011Z,8.93
2018-10-19T00:47:53.514Z,11.97
2018-10-19T00:50:28.330Z,7.77
2018-10-19T00:52:57.989Z,10.83
2018-10-19T00:55:30.306Z,8.70
2018-10-19T00:57:58.700Z,11.03
2018-10-19T01:00:30.765Z,12.87
2018-10-19T01:03:00.385Z,8.73
2018-10-19T01:05:32.090Z,13.67
2018-10-19T01:08:00.573Z,10.10
2018-10-19T01:10:31.025Z,12.07
2018-10-19T01:13:12.339Z,9.97
2018-10-19T01:15:45.053Z,13.70
2018-10-19T01:18:13.761Z,13.07
2018-10-19T01:20:45.491Z,11.83
2018-10-19T01:23:14.219Z,9.43
2018-10-19T01:26:22.687Z,8.27
2018-10-19T01:28:51.228Z,15.47
2018-10-19T01:31:19.812Z,11.57
2018-10-19T01:33:48.232Z,8.20
2018-10-19T01:36:16.595Z,11.40
2018-10-19T01:38:51.407Z,9.47
2018-10-19T01:41:23.805Z,11.60
2018-10-19T01:43:54.344Z,9.93
2018-10-19T01:46:37.447Z,8.93
2018-10-19T01:49:05.823Z,15.87
2018-10-19T01:51:35.456Z,12.27
2018-10-19T01:54:07.280Z,10.53
2018-10-19T01:56:35.910Z,9.97
2018-10-19T01:59:10.246Z,12.20
2018-10-19T02:01:38.762Z,9.83
2018-10-19T02:04:17.332Z,8.43
2018-10-19T02:06:50.658Z,11.40
2018-10-19T02:09:21.120Z,10.60
2018-10-19T02:11:55.348Z,9.83
2018-10-19T02:14:23.802Z,10.43
2018-10-19T02:16:52.474Z,10.57
2018-10-19T02:19:21.090Z,13.37
2018-10-19T02:21:50.699Z,11.50
2018-10-19T02:24:23.745Z,10.37
2018-10-19T02:26:53.321Z,13.03
2018-10-19T02:29:25.034Z,8.70
2018-10-19T02:31:59.314Z,14.80
2018-10-19T02:34:29.798Z,8.03
2018-10-19T02:37:03.782Z,15.27
2018-10-19T02:39:40.406Z,11.53
2018-10-19T02:42:14.636Z,11.17
2018-10-19T02:44:46.424Z,11.40
2018-10-19T02:47:17.505Z,8.40
2018-10-19T02:49:58.970Z,14.43
2018-10-19T02:52:27.508Z,12.03
2018-10-19T02:54:59.218Z,10.27
2018-10-19T02:57:33.458Z,17.43
2018-10-19T03:00:07.889Z,11.27
2018-10-19T03:02:36.372Z,7.70
2018-10-19T03:05:08.664Z,12.33
2018-10-19T03:07:40.818Z,12.73
2018-10-19T03:10:14.144Z,11.00
2018-10-19T03:12:44.634Z,10.30
2018-10-19T03:15:13.097Z,9.73
2018-10-19T03:17:42.626Z,9.57
2018-10-19T03:20:14.964Z,9.70
2018-10-19T03:22:46.721Z,7.63
2018-10-19T03:25:18.518Z,12.83
2018-10-19T03:27:52.778Z,10.30
2018-10-19T03:30:29.429Z,10.53
2018-10-19T03:33:03.691Z,14.17
2018-10-19T03:35:33.273Z,13.77
2018-10-19T03:38:01.938Z,12.00
2018-10-19T03:40:38.993Z,9.33
2018-10-19T03:43:13.437Z,9.00
2018-10-19T03:45:41.803Z,9.20
2018-10-19T03:48:11.394Z,12.53
2018-10-19T03:50:50.569Z,11.20
2018-10-19T03:53:20.339Z,13.80
2018-10-19T03:55:50.707Z,7.60
2018-10-19T03:58:24.265Z,10.67
2018-10-19T04:00:52.645Z,7.03
2018-10-19T04:03:24.779Z,9.13
2018-10-19T04:06:03.934Z,9.83
2018-10-19T04:08:38.369Z,13.37
2018-10-19T04:11:10.162Z,12.27
2018-10-19T04:13:44.321Z,9.47
2018-10-19T04:16:16.457Z,13.63
2018-10-19T04:18:50.668Z,10.57
2018-10-19T04:21:19.451Z,10.70
2018-10-19T04:23:48.970Z,10.27
2018-10-19T04:26:18.521Z,8.37
2018-10-19T04:28:53.093Z,13.00
2018-10-19T04:31:22.730Z,10.23
2018-10-19T04:33:53.197Z,11.57
2018-10-19T04:36:28.359Z,15.63
2018-10-19T04:39:04.892Z,15.87
2018-10-19T04:41:33.521Z,9.03
2018-10-19T04:44:04.066Z,11.33
2018-10-19T04:46:32.949Z,7.87
2018-10-19T04:49:02.789Z,11.17
2018-10-19T04:51:35.254Z,9.60
2018-10-19T04:54:04.151Z,12.77
2018-10-19T04:56:38.906Z,13.33
2018-10-19T04:59:07.717Z,10.60
2018-10-19T05:01:42.080Z,12.63
2018-10-19T05:04:10.771Z,10.10
2018-10-19T05:06:39.624Z,10.83
2018-10-19T05:09:09.978Z,15.63
2018-10-19T05:11:39.026Z,18.00
2018-10-19T05:14:08.065Z,15.70
2018-10-19T05:16:37.430Z,9.83
2018-10-19T05:19:09.646Z,12.63
2018-10-19T05:21:40.206Z,13.40
2018-10-19T05:24:08.882Z,8.83
2018-10-19T05:26:37.563Z,12.13
2018-10-19T05:29:06.428Z,13.93
2018-10-19T05:31:38.871Z,19.23
2018-10-19T05:34:07.602Z,9.27
2018-10-19T05:36:36.296Z,15.20
2018-10-19T05:39:07.426Z,12.03
2018-10-19T05:41:36.130Z,11.50
2018-10-19T05:44:04.978Z,13.30
2018-10-19T05:46:33.554Z,12.53
2018-10-19T05:49:02.238Z,12.77
2018-10-19T05:51:30.950Z,11.20
2018-10-19T05:53:59.663Z,11.50
2018-10-19T05:56:28.425Z,17.60
2018-10-19T05:58:58.171Z,15.03
2018-10-19T06:01:26.817Z,14.50
2018-10-19T06:03:56.409Z,14.73
2018-10-19T06:06:25.138Z,11.17
2018-10-19T06:08:53.810Z,11.63
2018-10-19T06:11:22.614Z,9.83
2018-10-19T06:13:51.303Z,11.10
2018-10-19T06:16:19.915Z,14.10
2018-10-19T06:18:48.568Z,13.97
2018-10-19T06:21:18.096Z,13.30
2018-10-19T06:23:48.097Z,15.17
2018-10-19T06:26:16.795Z,19.80
2018-10-19T06:28:45.535Z,14.17
2018-10-19T06:31:15.062Z,18.47
2018-10-19T06:33:45.366Z,13.17
2018-10-19T06:36:13.909Z,17.07
2018-10-19T06:38:43.581Z,17.03
2018-10-19T06:41:12.280Z,13.83
2018-10-19T06:43:41.017Z,12.37
2018-10-19T06:46:09.621Z,13.73
2018-10-19T06:48:38.391Z,13.50
2018-10-19T06:51:07.997Z,9.57
2018-10-19T06:53:36.584Z,10.80
2018-10-19T06:56:05.505Z,13.67
2018-10-19T06:58:34.005Z,13.20
2018-10-19T07:01:02.753Z,14.83
2018-10-19T07:03:31.449Z,17.37
2018-10-19T07:06:00.012Z,14.47
2018-10-19T07:08:30.651Z,17.93
2018-10-19T07:11:00.161Z,14.03
2018-10-19T07:13:28.784Z,19.43
2018-10-19T07:16:07.016Z,14.07
2018-10-19T07:18:43.677Z,15.93
2018-10-19T07:21:14.232Z,13.13
2018-10-19T07:23:43.854Z,14.13
2018-10-19T07:26:12.482Z,16.43
2018-10-19T07:28:40.854Z,16.10
2018-10-19T07:31:12.942Z,19.93
2018-10-19T07:33:42.582Z,13.67
2018-10-19T07:36:13.157Z,16.43
2018-10-19T07:38:41.787Z,14.40
2018-10-19T07:41:14.198Z,14.27
2018-10-19T07:43:42.968Z,15.00
2018-10-19T07:46:14.602Z,18.80
2018-10-19T07:48:44.212Z,23.00
2018-10-19T07:51:18.720Z,18.43
2018-10-19T07:53:50.225Z,15.70
2018-10-19T07:56:18.873Z,18.80
2018-10-19T07:58:49.487Z,21.20
2018-10-19T08:01:18.154Z,19.60
2018-10-19T08:03:46.772Z,19.23
2018-10-19T08:06:23.152Z,23.40
2018-10-19T08:08:59.797Z,21.10
2018-10-19T08:11:34.124Z,22.33
2018-10-19T08:14:09.222Z,22.33
2018-10-19T08:16:41.603Z,24.53
2018-10-19T08:19:11.165Z,25.27
2018-10-19T08:21:49.481Z,21.43
2018-10-19T08:24:23.879Z,21.30
2018-10-19T08:27:03.663Z,22.00
2018-10-19T08:29:34.304Z,22.17
2018-10-19T08:32:09.037Z,23.63
2018-10-19T08:34:38.717Z,22.60
2018-10-19T08:37:08.263Z,24.43
2018-10-19T08:39:43.652Z,28.30
2018-10-19T08:42:16.989Z,21.50
2018-10-19T08:44:47.562Z,25.70
2018-10-19T08:47:16.273Z,29.53
2018-10-19T08:49:46.714Z,25.53
2018-10-19T08:52:18.831Z,25.17
2018-10-19T08:54:49.535Z,23.77
2018-10-19T08:57:21.680Z,26.97
2018-10-19T08:59:53.534Z,24.60
2018-10-19T09:02:27.384Z,29.23
2018-10-19T09:04:56.080Z,28.37
2018-10-19T09:07:25.673Z,26.67
2018-10-19T09:09:56.220Z,25.30
2018-10-19T09:12:28.230Z,29.00
2018-10-19T09:15:01.185Z,25.57
2018-10-19T09:17:32.716Z,23.67
2018-10-19T09:20:02.341Z,28.20
2018-10-19T09:22:30.710Z,25.83
2018-10-19T09:25:11.693Z,28.47
2018-10-19T09:27:43.435Z,29.20
2018-10-19T09:30:15.485Z,35.67
2018-10-19T09:32:49.362Z,28.93
2018-10-19T09:35:21.920Z,29.43
2018-10-19T09:37:56.040Z,26.13
2018-10-19T09:40:24.771Z,22.03
2018-10-19T09:42:53.455Z,26.20
2018-10-19T09:45:26.623Z,27.00
2018-10-19T09:47:55.425Z,27.20
2018-10-19T09:50:24.206Z,24.97
2018-10-19T09:52:52.800Z,27.87
2018-10-19T09:55:21.489Z,25.53
2018-10-19T09:57:50.136Z,26.00
2018-10-19T10:00:24.875Z,26.80
2018-10-19T10:02:57.062Z,22.90
2018-10-19T10:05:31.162Z,24.37
2018-10-19T10:08:03.743Z,27.93
2018-10-19T10:10:50.387Z,26.37
2018-10-19T10:13:18.977Z,25.33
2018-10-19T10:15:53.035Z,28.63
2018-10-19T10:18:25.372Z,28.17
2018-10-19T10:20:54.088Z,24.20
2018-10-19T10:23:23.683Z,24.23
2018-10-19T10:25:53.421Z,20.77
2018-10-19T10:28:22.852Z,22.77
2018-10-19T10:30:51.261Z,23.90
2018-10-19T10:33:20.306Z,31.07
2018-10-19T10:35:51.646Z,25.70
2018-10-19T10:38:20.186Z,28.20
2018-10-19T10:40:48.795Z,25.10
2018-10-19T10:43:17.469Z,24.87
2018-10-19T10:45:47.134Z,25.07
2018-10-19T10:48:15.794Z,27.87
2018-10-19T10:50:45.425Z,26.83
2018-10-19T10:53:14.937Z,22.00
2018-10-19T10:55:47.325Z,22.23
2018-10-19T10:58:17.041Z,24.30
2018-10-19T11:00:49.707Z,23.90
2018-10-19T11:03:18.355Z,21.10
2018-10-19T11:05:47.398Z,25.87
2018-10-19T11:08:15.985Z,22.33
2018-10-19T11:10:46.623Z,23.93
2018-10-19T11:13:15.235Z,23.47
2018-10-19T11:15:43.991Z,20.87
2018-10-19T11:18:14.193Z,24.43
2018-10-19T11:20:45.909Z,25.27
2018-10-19T11:23:18.145Z,22.83
2018-10-19T11:25:53.123Z,26.37
2018-10-19T11:28:27.507Z,22.70
2018-10-19T11:30:57.027Z,24.97
2018-10-19T11:33:25.607Z,24.10
2018-10-19T11:35:53.961Z,24.27
2018-10-19T11:38:22.392Z,23.73
2018-10-19T11:40:52.933Z,23.20
2018-10-19T11:43:21.673Z,20.70
2018-10-19T11:45:50.337Z,23.13
2018-10-19T11:48:18.982Z,21.60
2018-10-19T11:50:47.694Z,24.40
2018-10-19T11:53:17.282Z,23.97
2018-10-19T11:55:46.858Z,24.17
2018-10-19T11:58:15.627Z,24.13
2018-10-19T12:00:44.239Z,21.17
2018-10-19T12:03:19.053Z,18.73
2018-10-19T12:05:48.633Z,20.50
2018-10-19T12:08:18.351Z,21.10
2018-10-19T12:10:47.207Z,23.93
2018-10-19T12:13:16.655Z,21.40
2018-10-19T12:15:46.141Z,19.90
2018-10-19T12:18:15.774Z,25.43
2018-10-19T12:20:50.005Z,21.83
2018-10-19T12:23:21.758Z,22.20
2018-10-19T12:25:51.346Z,24.50
2018-10-19T12:28:20.955Z,25.70
2018-10-19T12:30:50.736Z,31.70
2018-10-19T12:33:19.260Z,21.93
2018-10-19T12:35:47.690Z,23.27
2018-10-19T12:38:16.910Z,22.93
2018-10-19T12:40:47.480Z,21.70
2018-10-19T12:43:22.030Z,22.27
2018-10-19T12:46:30.209Z,24.13
2018-10-19T12:48:58.759Z,25.63
2018-10-19T12:51:32.668Z,23.23
2018-10-19T12:54:07.387Z,24.97
2018-10-19T12:56:43.803Z,26.47
2018-10-19T12:59:20.478Z,22.10
2018-10-19T13:01:48.837Z,27.53
2018-10-19T13:04:17.269Z,29.20
2018-10-19T13:06:50.712Z,21.97
2018-10-19T13:09:19.285Z,21.60
2018-10-19T13:11:55.566Z,22.87
2018-10-19T13:14:32.271Z,20.40
2018-10-19T13:17:10.862Z,28.07
2018-10-19T13:19:43.167Z,19.43
2018-10-19T13:22:12.765Z,21.53
2018-10-19T13:24:44.524Z,24.00
2018-10-19T13:27:20.631Z,23.10
2018-10-19T13:29:56.050Z,22.93
2018-10-19T13:32:30.562Z,19.00
2018-10-19T13:35:00.223Z,23.27
2018-10-19T13:37:32.495Z,19.60
2018-10-19T13:40:04.324Z,22.33
2018-10-19T13:42:33.933Z,21.43
2018-10-19T13:45:08.182Z,21.73
2018-10-19T13:47:37.745Z,26.40
2018-10-19T13:50:16.721Z,20.20
2018-10-19T13:52:45.223Z,24.07
2018-10-19T13:55:13.601Z,19.00
2018-10-19T13:57:41.992Z,26.73
2018-10-19T14:00:15.933Z,19.00
2018-10-19T14:02:50.105Z,18.97
2018-10-19T14:05:19.850Z,20.47
2018-10-19T14:07:48.466Z,20.27
2018-10-19T14:10:17.086Z,21.23
2018-10-19T14:12:45.503Z,20.23
2018-10-19T14:15:19.412Z,19.10
2018-10-19T14:17:54.550Z,19.00
2018-10-19T14:20:24.022Z,17.47
2018-10-19T14:22:55.644Z,20.77
2018-10-19T14:25:24.059Z,20.13
2018-10-19T14:27:53.602Z,19.47
2018-10-19T14:30:24.192Z,19.23
2018-10-19T14:32:56.595Z,20.03
2018-10-19T14:35:25.211Z,18.27
2018-10-19T14:37:54.860Z,15.17
2018-10-19T14:40:28.203Z,35.43
2018-10-19T14:42:56.861Z,18.20
2018-10-19T14:45:25.580Z,17.60
2018-10-19T14:47:57.290Z,18.77
2018-10-19T14:50:26.076Z,19.60
2018-10-19T14:52:54.709Z,15.87
2018-10-19T14:55:28.588Z,15.87
2018-10-19T14:57:58.184Z,18.20
2018-10-19T15:00:27.852Z,14.77
2018-10-19T15:02:57.524Z,16.43
2018-10-19T15:05:26.201Z,19.83
2018-10-19T15:07:54.879Z,21.73
2018-10-19T15:10:23.621Z,20.03
2018-10-19T15:12:52.161Z,42.03
2018-10-19T15:15:22.331Z,18.27
2018-10-19T15:17:54.663Z,15.57
2018-10-19T15:20:23.105Z,18.37
2018-10-19T15:22:55.140Z,20.97
2018-10-19T15:25:24.715Z,18.70
2018-10-19T15:27:56.779Z,21.10
2018-10-19T15:30:30.417Z,17.87
2018-10-19T15:32:58.784Z,21.93
2018-10-19T15:35:29.344Z,22.80
2018-10-19T15:37:59.007Z,22.77
2018-10-19T15:40:27.646Z,27.70
2018-10-19T15:42:56.329Z,25.07
2018-10-19T15:45:25.040Z,22.50
2018-10-19T15:47:53.720Z,21.43
2018-10-19T15:50:23.257Z,22.57
2018-10-19T15:52:52.963Z,19.13
2018-10-19T15:55:21.565Z,23.47
2018-10-19T15:57:52.107Z,22.90
2018-10-19T16:00:20.653Z,19.87
2018-10-19T16:02:50.344Z,15.90
2018-10-19T16:05:19.261Z,18.60
2018-10-19T16:07:50.195Z,25.13
2018-10-19T16:10:18.850Z,25.57
2018-10-19T16:12:47.757Z,18.33
2018-10-19T16:15:17.660Z,16.73
2018-10-19T16:17:47.763Z,22.23
2018-10-19T16:20:16.452Z,24.77
2018-10-19T16:22:48.400Z,19.80
2018-10-19T16:25:17.104Z,20.23
2018-10-19T16:27:45.847Z,28.60
2018-10-19T16:30:14.578Z,21.53
2018-10-19T16:32:43.195Z,15.07
2018-10-19T16:35:11.871Z,20.60
2018-10-19T16:37:40.546Z,28.43
2018-10-19T16:40:10.250Z,22.83
2018-10-19T16:42:39.182Z,18.40
2018-10-19T16:45:09.336Z,22.57
2018-10-19T16:47:37.937Z,18.90
2018-10-19T16:50:06.757Z,22.83
2018-10-19T16:52:37.653Z,20.53
2018-10-19T16:55:07.498Z,20.90
2018-10-19T16:57:37.104Z,16.37
2018-10-19T17:00:07.906Z,16.77
2018-10-19T17:02:37.566Z,18.27
2018-10-19T17:05:06.350Z,19.53
2018-10-19T17:07:35.274Z,20.10
2018-10-19T17:10:06.124Z,19.40
2018-10-19T17:12:36.037Z,19.63
2018-10-19T17:15:07.304Z,18.87
2018-10-19T17:17:36.151Z,21.13
2018-10-19T17:20:05.052Z,16.77
2018-10-19T17:22:33.969Z,20.00
2018-10-19T17:25:02.912Z,20.50
2018-10-19T17:27:31.514Z,22.70
2018-10-19T17:30:00.310Z,24.53
2018-10-19T17:32:29.155Z,22.60
2018-10-19T17:34:57.917Z,22.77
2018-10-19T17:37:27.767Z,23.73
2018-10-19T17:39:56.482Z,23.47
2018-10-19T17:42:28.818Z,19.20
2018-10-19T17:44:57.502Z,17.73
2018-10-19T17:47:26.201Z,21.60
2018-10-19T17:49:57.999Z,48.03
2018-10-19T17:52:30.635Z,28.07
2018-10-19T17:54:59.305Z,21.47
2018-10-19T17:57:32.034Z,22.93
2018-10-19T18:00:03.004Z,22.93
2018-10-19T18:02:40.423Z,16.83
2018-10-19T18:05:13.179Z,17.40
2018-10-19T18:07:41.903Z,17.63
2018-10-19T18:10:18.760Z,16.97
2018-10-19T18:12:47.519Z,17.67
2018-10-19T18:15:16.423Z,13.33
2018-10-19T18:17:45.128Z,14.47
2018-10-19T18:20:17.532Z,14.60
2018-10-19T18:22:46.284Z,15.97
2018-10-19T18:25:14.839Z,18.57
2018-10-19T18:27:43.605Z,21.87
2018-10-19T18:30:12.297Z,18.07
2018-10-19T18:32:40.935Z,17.90
2018-10-19T18:35:10.641Z,16.93
2018-10-19T18:37:43.175Z,17.90
2018-10-19T18:40:12.587Z,15.73
2018-10-19T18:42:42.497Z,17.50
2018-10-19T18:45:11.282Z,16.07
2018-10-19T18:47:46.238Z,23.00
2018-10-19T18:50:15.053Z,17.63
2018-10-19T18:52:54.766Z,16.67
2018-10-19T18:55:23.348Z,17.23
2018-10-19T18:57:57.812Z,18.53
2018-10-19T19:00:26.561Z,18.07
2018-10-19T19:02:56.290Z,19.73
2018-10-19T19:05:24.876Z,17.17
2018-10-19T19:07:53.613Z,19.47
2018-10-19T19:10:22.221Z,21.07
2018-10-19T19:13:02.179Z,23.97
2018-10-19T19:15:31.036Z,24.23
2018-10-19T19:18:07.343Z,21.73
2018-10-19T19:20:37.970Z,23.03
2018-10-19T19:23:10.321Z,21.00
2018-10-19T19:25:44.183Z,23.50
2018-10-19T19:28:13.002Z,21.97
2018-10-19T19:30:47.927Z,18.70
2018-10-19T19:33:23.738Z,19.13
2018-10-19T19:35:52.407Z,17.67
2018-10-19T19:38:23.103Z,24.70
2018-10-19T19:41:01.031Z,24.67
2018-10-19T19:43:32.643Z,19.67
2018-10-19T19:46:08.975Z,18.13
2018-10-19T19:48:42.966Z,19.83
2018-10-19T19:51:13.084Z,20.33
2018-10-19T19:53:41.880Z,23.40
2018-10-19T19:56:10.921Z,22.17
2018-10-19T19:58:45.560Z,24.10
2018-10-19T20:01:14.246Z,20.83
2018-10-19T20:03:43.828Z,21.33
2018-10-19T20:06:12.582Z,24.23
2018-10-19T20:08:41.134Z,21.83
2018-10-19T20:11:09.679Z,22.07
2018-10-19T20:13:41.928Z,24.43
2018-10-19T20:16:13.728Z,21.13
2018-10-19T20:18:49.713Z,24.70
2018-10-19T20:21:21.875Z,23.47
2018-10-19T20:23:52.329Z,22.87
2018-10-19T20:26:22.856Z,20.50
2018-10-19T20:28:51.510Z,18.13
2018-10-19T20:31:21.174Z,22.90
2018-10-19T20:33:49.839Z,19.97
2018-10-19T20:36:18.286Z,24.27
2018-10-19T20:38:46.935Z,19.70
2018-10-19T20:41:15.733Z,19.20
2018-10-19T20:43:45.245Z,22.97
2018-10-19T20:46:17.251Z,27.00
2018-10-19T20:48:55.508Z,24.93
2018-10-19T20:51:24.230Z,22.47
2018-10-19T20:53:52.864Z,22.77
2018-10-19T20:56:25.517Z,25.00
2018-10-19T20:58:53.944Z,23.60
2018-10-19T21:01:23.610Z,21.97
2018-10-19T21:03:55.538Z,27.20
2018-10-19T21:06:30.795Z,23.30
2018-10-19T21:09:08.130Z,22.93
2018-10-19T21:11:37.196Z,21.20
2018-10-19T21:14:05.939Z,21.57
2018-10-19T21:16:34.391Z,26.03
2018-10-19T21:19:03.150Z,21.53
2018-10-19T21:21:31.772Z,23.23
2018-10-19T21:24:00.140Z,23.40
2018-10-19T21:26:28.469Z,21.83
2018-10-19T21:28:56.922Z,20.07
2018-10-19T21:31:27.483Z,19.40
2018-10-19T21:33:56.114Z,19.37
2018-10-19T21:36:29.455Z,21.67
2018-10-19T21:39:01.487Z,19.87
2018-10-19T21:41:31.125Z,23.03
2018-10-19T21:43:59.822Z,22.80
2018-10-19T21:46:28.472Z,22.27
2018-10-19T21:49:02.760Z,22.40
2018-10-19T21:51:31.502Z,24.63
2018-10-19T21:54:00.089Z,25.73
2018-10-19T21:56:28.726Z,25.00
2018-10-19T21:59:00.863Z,26.50
2018-10-19T22:01:34.996Z,23.57
2018-10-19T22:04:09.875Z,21.30
2018-10-19T22:06:38.592Z,26.17
2018-10-19T22:09:12.511Z,27.87
2018-10-19T22:11:46.934Z,27.47
2018-10-19T22:14:23.680Z,45.90
2018-10-19T22:16:55.768Z,27.87
2018-10-19T22:19:27.468Z,18.97
2018-10-19T22:21:57.089Z,26.47
2018-10-19T22:24:28.895Z,24.10
2018-10-19T22:27:03.044Z,25.20
2018-10-19T22:29:32.639Z,21.30
2018-10-19T22:32:04.439Z,27.13
2018-10-19T22:34:32.820Z,25.17
2018-10-19T22:37:01.163Z,24.63
2018-10-19T22:39:35.093Z,22.33
2018-10-19T22:42:10.881Z,27.13
2018-10-19T22:44:40.469Z,24.83
2018-10-19T22:47:11.093Z,24.80
2018-10-19T22:49:43.358Z,26.17
2018-10-19T22:52:15.133Z,25.33
2018-10-19T22:54:44.733Z,25.40
2018-10-19T22:57:14.325Z,23.43
2018-10-19T22:59:48.288Z,22.30
2018-10-19T23:02:16.913Z,26.90
2018-10-19T23:04:48.677Z,23.10
2018-10-19T23:07:20.429Z,28.67
2018-10-19T23:09:50.100Z,31.20
2018-10-19T23:12:20.560Z,28.10
2018-10-19T23:14:52.350Z,30.83
2018-10-19T23:17:22.882Z,22.03
2018-10-19T23:19:54.998Z,20.93
2018-10-19T23:22:30.103Z,22.73
2018-10-19T23:25:05.263Z,28.33
2018-10-19T23:27:34.837Z,23.17
2018-10-19T23:30:04.588Z,23.43
2018-10-19T23:32:33.178Z,22.60
2018-10-19T23:35:01.861Z,25.53
2018-10-19T23:37:30.575Z,24.63
2018-10-19T23:39:59.235Z,22.80
2018-10-19T23:42:27.908Z,24.37
2018-10-19T23:44:56.575Z,25.40
2018-10-19T23:47:26.192Z,26.17
2018-10-19T23:49:54.550Z,24.00
2018-10-19T23:52:22.953Z,22.77
2018-10-19T23:54:52.562Z,30.13
2018-10-19T23:57:20.939Z,23.87
2018-10-19T23:59:53.011Z,28.10
